Time;durP1;ratioP1;P1;durP2;ratioP2;P2;SDS_P1;SDS_P2;PMS_P1;PMS_P2;Temp;Humidity;BMP_temperature;BMP_pressure;BME280_temperature;BME280_humidity;BME280_pressure;Samples;Min_cycle;Max_cycle;Signal;HPM_P1;HPM_P2
2021/01/01 01:04:46;;;;;;;47.22;23.92;;;2.70;99.90;;;;;;6394182;22;20101;-54
2021/01/01 01:07:11;;;;;;;48.15;24.75;;;2.70;99.90;;;;;;6398919;22;20100;-54
2021/01/01 01:09:37;;;;;;;44.47;22.35;;;2.70;99.90;;;;;;6398637;22;19998;-54
2021/01/01 01:12:03;;;;;;;41.80;23.08;;;2.70;99.90;;;;;;6399064;22;20006;-54
2021/01/01 01:14:29;;;;;;;40.25;23.40;;;2.70;99.90;;;;;;6399117;22;19997;-54
2021/01/01 01:16:55;;;;;;;40.83;23.70;;;2.70;99.90;;;;;;6398622;22;20017;-53
2021/01/01 01:19:21;;;;;;;43.53;23.00;;;2.80;99.90;;;;;;6398912;22;20050;-54
2021/01/01 01:21:46;;;;;;;45.00;23.63;;;2.80;99.90;;;;;;6398635;22;20005;-53
2021/01/01 01:24:12;;;;;;;43.03;23.45;;;2.80;99.90;;;;;;6398583;22;20005;-54
2021/01/01 01:26:38;;;;;;;41.47;22.80;;;2.80;99.90;;;;;;6398635;22;20492;-54
2021/01/01 01:29:04;;;;;;;40.55;21.75;;;2.80;99.90;;;;;;6398738;22;20002;-53
2021/01/01 01:31:32;;;;;;;38.10;22.35;;;2.70;99.90;;;;;;6398791;22;20008;-55
2021/01/01 01:33:57;;;;;;;37.88;21.10;;;2.70;99.90;;;;;;6401284;22;20082;-54
2021/01/01 01:36:23;;;;;;;40.08;22.17;;;2.70;99.90;;;;;;6401404;22;20490;-54
2021/01/01 01:38:49;;;;;;;42.00;22.00;;;2.70;99.90;;;;;;6401244;22;19998;-54
2021/01/01 01:41:15;;;;;;;37.40;21.20;;;2.70;99.90;;;;;;6401385;22;20006;-54
2021/01/01 01:43:41;;;;;;;35.15;20.80;;;2.70;99.90;;;;;;6400798;22;19998;-54
2021/01/01 01:46:07;;;;;;;35.25;20.13;;;2.70;99.90;;;;;;6401132;22;20021;-54
2021/01/01 01:48:37;;;;;;;32.60;19.10;;;2.70;99.90;;;;;;6401367;22;19994;-54
2021/01/01 01:51:03;;;;;;;28.92;18.65;;;2.70;99.90;;;;;;6401119;22;20002;-54
2021/01/01 01:53:44;;;;;;;32.45;18.45;;;2.60;99.90;;;;;;6401128;22;20056;-54
2021/01/01 01:56:11;;;;;;;33.53;18.45;;;2.60;99.90;;;;;;6401228;22;20010;-54
2021/01/01 01:58:39;;;;;;;32.42;18.48;;;2.60;99.90;;;;;;6401229;22;20008;-54
2021/01/01 02:01:05;;;;;;;33.03;18.73;;;2.60;99.90;;;;;;6400953;22;20001;-54
2021/01/01 02:03:32;;;;;;;34.60;19.58;;;2.60;99.90;;;;;;6400965;22;20010;-54
2021/01/01 02:05:59;;;;;;;29.90;18.73;;;2.60;99.90;;;;;;6401087;22;20032;-54
2021/01/01 02:08:26;;;;;;;36.85;18.88;;;2.60;99.90;;;;;;6401238;22;20009;-54
2021/01/01 02:10:54;;;;;;;32.58;19.17;;;2.60;99.90;;;;;;6401034;22;20244;-54
2021/01/01 02:13:22;;;;;;;32.90;18.70;;;2.70;99.90;;;;;;6401207;22;20001;-54
2021/01/01 02:15:48;;;;;;;33.85;18.58;;;2.60;99.90;;;;;;6401064;22;19998;-54
2021/01/01 02:18:33;;;;;;;32.00;18.02;;;2.70;99.90;;;;;;6400854;22;20002;-54
2021/01/01 02:20:59;;;;;;;33.88;18.55;;;2.60;99.90;;;;;;6401157;22;20691;-54
2021/01/01 02:23:24;;;;;;;30.50;20.35;;;2.70;99.90;;;;;;6401114;22;20442;-54
2021/01/01 02:25:50;;;;;;;33.30;19.88;;;2.70;99.90;;;;;;6401087;22;20089;-54
2021/01/01 02:28:16;;;;;;;39.85;22.48;;;2.60;99.90;;;;;;6400915;22;20002;-54
2021/01/01 02:30:42;;;;;;;35.80;20.77;;;2.60;99.90;;;;;;6400892;22;20002;-54
2021/01/01 02:33:08;;;;;;;41.22;23.63;;;2.60;99.90;;;;;;6401038;22;20001;-54
2021/01/01 02:35:33;;;;;;;38.00;20.77;;;2.60;99.90;;;;;;6401122;22;20048;-55
2021/01/01 02:37:59;;;;;;;35.97;21.58;;;2.60;99.90;;;;;;6401103;22;19998;-54
2021/01/01 02:40:25;;;;;;;37.75;21.45;;;2.60;99.90;;;;;;6400796;22;20454;-55
2021/01/01 02:42:51;;;;;;;37.28;22.45;;;2.70;99.90;;;;;;6401277;22;20347;-55
2021/01/01 02:45:17;;;;;;;33.88;20.30;;;2.60;99.90;;;;;;6400690;22;20002;-54
2021/01/01 02:47:43;;;;;;;38.30;19.98;;;2.70;99.90;;;;;;6400879;22;20002;-55
2021/01/01 02:50:10;;;;;;;37.05;20.75;;;2.70;99.90;;;;;;6400772;22;20080;-55
2021/01/01 02:52:36;;;;;;;35.53;19.08;;;2.70;99.90;;;;;;6400991;22;20002;-54
2021/01/01 02:55:02;;;;;;;38.97;21.50;;;2.60;99.90;;;;;;6401530;22;20423;-54
2021/01/01 02:57:27;;;;;;;31.67;19.05;;;2.70;99.90;;;;;;6402982;22;20024;-54
2021/01/01 02:59:53;;;;;;;36.65;19.83;;;2.60;99.90;;;;;;6402865;22;20059;-54
2021/01/01 03:02:19;;;;;;;33.50;19.52;;;2.70;99.90;;;;;;6403014;22;19993;-55
2021/01/01 07:21:53;;;;;;;15.70;8.32;;;1.30;99.90;;;;;;6369484;22;20021;-55
2021/01/01 07:24:18;;;;;;;13.07;8.15;;;1.30;99.90;;;;;;6371015;22;20006;-63
2021/01/01 07:26:44;;;;;;;12.05;8.23;;;1.30;99.90;;;;;;6370748;22;20478;-54
2021/01/01 07:29:10;;;;;;;14.48;9.30;;;1.30;99.90;;;;;;6370691;22;20013;-56
2021/01/01 07:31:36;;;;;;;13.63;9.00;;;1.30;99.90;;;;;;6370551;22;20025;-71
2021/01/01 07:34:09;;;;;;;19.23;9.77;;;1.30;99.90;;;;;;6362190;22;20078;-56
2021/01/01 07:36:35;;;;;;;18.25;9.63;;;1.30;99.90;;;;;;6402504;22;20006;-64
2021/01/01 07:39:04;;;;;;;16.15;9.38;;;1.30;99.90;;;;;;6402363;22;20026;-63
2021/01/01 07:41:30;;;;;;;15.20;9.45;;;1.30;99.90;;;;;;6401845;22;20169;-61
2021/01/01 07:43:56;;;;;;;17.20;10.10;;;1.30;99.90;;;;;;6401669;22;20022;-60
2021/01/01 07:46:22;;;;;;;19.48;10.80;;;1.20;99.90;;;;;;6402290;22;20104;-63
2021/01/01 07:48:52;;;;;;;21.95;11.95;;;1.20;99.90;;;;;;6402481;22;20002;-62
2021/01/01 07:51:19;;;;;;;20.38;11.30;;;1.20;99.90;;;;;;6402457;22;20451;-63
2021/01/01 07:53:45;;;;;;;17.77;10.82;;;1.20;99.90;;;;;;6402213;22;19994;-68
2021/01/01 07:56:11;;;;;;;20.48;11.30;;;1.30;99.90;;;;;;6401883;22;20002;-61
2021/01/01 07:58:37;;;;;;;23.05;11.70;;;1.30;99.90;;;;;;6400449;22;20005;-64
2021/01/01 08:01:08;;;;;;;19.45;11.10;;;1.30;99.90;;;;;;6401462;22;20009;-63
2021/01/01 08:03:39;;;;;;;17.77;10.20;;;1.30;99.90;;;;;;6399564;22;20009;-62
2021/01/01 08:06:07;;;;;;;18.98;10.80;;;1.30;99.90;;;;;;6399719;22;20017;-62
2021/01/01 08:08:33;;;;;;;20.58;11.38;;;1.30;99.90;;;;;;6399867;22;20065;-63
2021/01/01 08:10:59;;;;;;;19.17;10.43;;;1.30;99.90;;;;;;6399865;22;20027;-63
2021/01/01 08:13:27;;;;;;;21.27;11.13;;;1.30;99.90;;;;;;6399883;22;20009;-64
2021/01/01 08:16:14;;;;;;;20.20;11.60;;;1.30;99.90;;;;;;6371631;22;20005;-62
2021/01/01 08:18:41;;;;;;;27.42;13.30;;;1.30;99.90;;;;;;6371503;22;20532;-62
2021/01/01 08:21:07;;;;;;;21.38;11.48;;;1.30;99.90;;;;;;6399360;22;20021;-62
2021/01/01 08:23:43;;;;;;;19.30;11.35;;;1.30;99.90;;;;;;6399639;22;20002;-62
2021/01/01 08:26:11;;;;;;;19.15;10.57;;;1.30;99.90;;;;;;6399564;22;20025;-60
2021/01/01 08:28:39;;;;;;;24.50;12.05;;;1.30;99.90;;;;;;6399399;22;20037;-61
2021/01/01 08:31:09;;;;;;;19.92;11.35;;;1.30;99.90;;;;;;6399553;22;20004;-62
2021/01/01 08:33:40;;;;;;;20.13;11.77;;;1.30;99.90;;;;;;6399153;22;20006;-62
2021/01/01 08:36:09;;;;;;;22.10;11.90;;;1.30;99.90;;;;;;6399596;22;20002;-62
2021/01/01 08:38:36;;;;;;;17.98;10.93;;;1.30;99.90;;;;;;6399404;22;20002;-62
2021/01/01 08:41:02;;;;;;;17.10;10.73;;;1.30;99.90;;;;;;6392825;22;20009;-59
2021/01/01 08:43:29;;;;;;;22.17;12.20;;;1.30;99.90;;;;;;6396176;22;20032;-58
2021/01/01 08:45:55;;;;;;;20.48;10.07;;;1.30;99.90;;;;;;6396066;22;20085;-59
2021/01/01 08:48:21;;;;;;;20.40;11.70;;;1.30;99.90;;;;;;6395727;22;20010;-57
2021/01/01 08:50:51;;;;;;;18.63;10.80;;;1.30;99.90;;;;;;6396346;22;19998;-57
2021/01/01 08:53:18;;;;;;;19.60;10.80;;;1.40;99.90;;;;;;6395658;22;20054;-57
2021/01/01 08:55:54;;;;;;;18.55;9.45;;;1.40;99.90;;;;;;6395880;22;20343;-57
2021/01/01 08:58:20;;;;;;;23.85;12.43;;;1.50;99.90;;;;;;6396240;22;20006;-57
2021/01/01 09:00:47;;;;;;;42.78;18.33;;;1.50;99.90;;;;;;6396238;22;20002;-57
2021/01/01 09:03:14;;;;;;;25.65;12.80;;;1.50;99.90;;;;;;6396127;22;20089;-57
2021/01/01 09:05:40;;;;;;;24.80;13.15;;;1.60;99.90;;;;;;6395613;22;20010;-56
2021/01/01 09:08:11;;;;;;;23.83;11.38;;;1.60;99.90;;;;;;6396063;22;20089;-54
2021/01/01 09:10:47;;;;;;;23.13;13.38;;;1.70;99.90;;;;;;6396021;22;20005;-57
2021/01/01 09:13:32;;;;;;;39.08;17.63;;;1.70;99.90;;;;;;6393715;22;20081;-56
2021/01/01 09:16:11;;;;;;;25.08;13.50;;;1.70;99.90;;;;;;6395349;22;20526;-57
2021/01/01 09:18:37;;;;;;;29.40;15.30;;;1.60;99.90;;;;;;6395677;22;20021;-57
